Time;durP1;ratioP1;P1;durP2;ratioP2;P2;SDS_P1;SDS_P2;PMS_P1;PMS_P2;Temp;Humidity;BMP_temperature;BMP_pressure;BME280_temperature;BME280_humidity;BME280_pressure;Samples;Min_cycle;Max_cycle;Signal;HPM_P1;HPM_P2
2022/06/22 00:01:56;;;;;;;2.80;1.60;;;23.50;14.60;;;;;;5098061;28;20999;-71
2022/06/22 00:04:26;;;;;;;1.53;1.40;;;23.50;99.90;;;;;;5097784;28;20548;-71
2022/06/22 00:06:55;;;;;;;1.60;1.27;;;23.40;99.90;;;;;;5097852;28;20446;-71
2022/06/22 00:09:28;;;;;;;2.57;1.60;;;23.50;1.00;;;;;;5097947;28;20484;-72
2022/06/22 00:11:56;;;;;;;2.67;1.80;;;23.60;1.00;;;;;;5097679;28;20521;-71
2022/06/22 00:14:28;;;;;;;1.30;1.20;;;23.60;1.00;;;;;;5097801;28;20537;-71
2022/06/22 00:16:57;;;;;;;2.40;1.40;;;23.50;1.00;;;;;;5097695;28;20533;-71
2022/06/22 00:19:30;;;;;;;2.13;1.20;;;23.50;1.00;;;;;;5097726;28;20891;-72
2022/06/22 00:21:58;;;;;;;2.13;1.93;;;23.50;99.90;;;;;;5096089;28;20935;-71
2022/06/22 00:24:39;;;;;;;1.60;1.50;;;23.50;99.90;;;;;;5096041;28;20592;-71
2022/06/22 00:27:20;;;;;;;1.43;1.30;;;23.40;1.00;;;;;;5096554;28;20471;-71
2022/06/22 00:30:00;;;;;;;2.57;1.60;;;23.30;1.00;;;;;;5095509;28;20543;-72
2022/06/22 00:32:30;;;;;;;2.27;1.43;;;23.20;99.90;;;;;;5095708;28;20853;-72
2022/06/22 00:34:57;;;;;;;2.13;1.60;;;23.10;1.00;;;;;;5096403;28;20521;-72
2022/06/22 00:37:30;;;;;;;1.73;1.50;;;23.00;99.90;;;;;;5095505;28;20990;-72
2022/06/22 00:40:01;;;;;;;4.17;1.60;;;23.00;99.90;;;;;;5094824;28;20539;-72
2022/06/22 00:42:38;;;;;;;1.87;1.63;;;22.90;1.00;;;;;;5094555;28;20571;-71
2022/06/22 00:45:09;;;;;;;3.23;1.43;;;22.90;1.00;;;;;;5094580;28;20802;-72
2022/06/22 00:47:41;;;;;;;1.40;1.30;;;22.80;1.00;;;;;;5095439;28;20834;-72
2022/06/22 00:50:14;;;;;;;1.30;1.20;;;22.80;1.00;;;;;;5094828;28;20885;-72
2022/06/22 00:52:45;;;;;;;2.73;2.53;;;22.80;44.10;;;;;;5095357;28;20499;-72
2022/06/22 00:55:24;;;;;;;1.87;1.70;;;22.70;99.90;;;;;;5096129;28;20466;-71
2022/06/22 00:57:58;;;;;;;2.10;1.63;;;22.80;99.90;;;;;;5095662;28;20536;-71
2022/06/22 01:00:30;;;;;;;1.83;1.47;;;22.80;1.00;;;;;;5095114;28;20465;-72
2022/06/22 01:03:05;;;;;;;2.83;1.90;;;22.80;68.00;;;;;;5096082;28;20606;-72
2022/06/22 01:05:39;;;;;;;1.87;1.77;;;22.80;99.90;;;;;;5096573;28;20555;-72
2022/06/22 01:08:15;;;;;;;1.40;1.30;;;22.80;99.90;;;;;;5096609;28;20475;-71
2022/06/22 01:10:49;;;;;;;2.33;1.60;;;22.80;99.90;;;;;;5096463;28;20864;-71
2022/06/22 01:13:20;;;;;;;1.90;1.60;;;22.80;99.90;;;;;;5096665;28;20446;-72
2022/06/22 01:15:53;;;;;;;1.60;1.40;;;22.80;99.90;;;;;;5096513;28;20533;-72
2022/06/22 01:18:28;;;;;;;2.07;1.60;;;22.90;99.90;;;;;;5096364;28;20485;-72
2022/06/22 01:21:01;;;;;;;2.63;1.70;;;22.90;99.90;;;;;;5096133;28;20448;-72
2022/06/22 01:23:58;;;;;;;2.80;1.63;;;22.90;99.90;;;;;;5096338;28;20984;-71
2022/06/22 01:26:42;;;;;;;2.07;1.70;;;22.90;77.60;;;;;;5096286;28;20524;-73
2022/06/22 01:29:14;;;;;;;2.00;1.27;;;22.90;99.90;;;;;;5095697;28;20539;-72
2022/06/22 01:31:45;;;;;;;3.20;1.70;;;22.90;99.90;;;;;;5096610;28;20438;-72
2022/06/22 01:34:16;;;;;;;1.40;1.30;;;22.80;99.90;;;;;;5096457;28;20457;-71
2022/06/22 01:36:43;;;;;;;2.23;1.47;;;22.80;99.90;;;;;;5096146;28;20457;-72
2022/06/22 01:39:13;;;;;;;2.47;1.30;;;22.80;99.90;;;;;;5095736;28;20497;-71
2022/06/22 01:41:45;;;;;;;2.07;1.40;;;22.90;1.00;;;;;;5095417;28;20572;-72
2022/06/22 01:44:19;;;;;;;1.90;1.47;;;22.90;1.00;;;;;;5096526;28;20516;-72
2022/06/22 01:47:09;;;;;;;2.87;1.70;;;23.00;1.00;;;;;;5096165;28;20505;-73
2022/06/22 01:49:42;;;;;;;2.43;1.47;;;23.00;1.00;;;;;;5096017;28;20524;-72
2022/06/22 01:52:15;;;;;;;2.00;1.60;;;23.20;99.90;;;;;;5096217;28;20470;-72
2022/06/22 01:54:48;;;;;;;1.43;1.30;;;23.20;48.30;;;;;;5096541;28;20548;-71
2022/06/22 01:57:20;;;;;;;1.40;1.30;;;23.20;1.00;;;;;;5095940;28;20446;-72
2022/06/22 01:59:53;;;;;;;1.70;1.20;;;23.20;1.00;;;;;;5095848;28;20552;-71
2022/06/22 02:02:24;;;;;;;2.23;1.77;;;23.20;1.00;;;;;;5095909;28;20577;-72
2022/06/22 02:04:59;;;;;;;2.43;2.23;;;23.20;1.00;;;;;;5096111;28;20813;-71
2022/06/22 02:07:47;;;;;;;1.53;1.43;;;23.10;1.00;;;;;;5096256;28;20469;-72
2022/06/22 02:10:25;;;;;;;1.93;1.50;;;23.10;1.00;;;;;;5096024;28;20481;-72
2022/06/22 02:13:00;;;;;;;2.40;2.20;;;23.00;7.20;;;;;;5095728;28;20445;-71
2022/06/22 02:15:54;;;;;;;1.40;1.30;;;22.90;86.40;;;;;;5095305;28;20476;-71
2022/06/22 02:18:27;;;;;;;2.60;1.40;;;22.90;99.90;;;;;;5095962;28;20885;-72
2022/06/22 02:20:59;;;;;;;1.97;1.77;;;22.80;99.90;;;;;;5095883;28;20935;-71
2022/06/22 02:23:29;;;;;;;1.90;1.60;;;22.80;99.90;;;;;;5095747;28;20556;-72
2022/06/22 02:26:15;;;;;;;2.00;1.60;;;22.80;99.90;;;;;;5095458;28;20478;-71
2022/06/22 02:28:43;;;;;;;1.97;1.87;;;22.90;99.90;;;;;;5094965;28;20461;-73
2022/06/22 02:31:11;;;;;;;1.70;1.47;;;23.00;99.90;;;;;;5095908;28;20509;-72
2022/06/22 02:33:43;;;;;;;2.27;2.03;;;23.00;99.90;;;;;;5095520;28;20729;-72
2022/06/22 02:36:13;;;;;;;1.70;1.60;;;23.00;99.90;;;;;;5095589;28;20496;-72
2022/06/22 02:38:42;;;;;;;2.30;1.60;;;22.90;1.00;;;;;;5095882;28;20445;-75
2022/06/22 02:46:43;;;;;;;3.80;2.40;;;22.10;1.00;;;;;;5094316;28;20963;-71
2022/06/22 02:49:18;;;;;;;2.23;2.03;;;22.10;4.40;;;;;;5092349;28;20457;-72
2022/06/22 02:51:47;;;;;;;2.80;2.60;;;22.20;1.00;;;;;;5093438;28;20536;-72
2022/06/22 02:54:24;;;;;;;4.03;2.60;;;22.10;1.00;;;;;;5096294;28;20765;-72
2022/06/22 02:57:01;;;;;;;2.50;2.30;;;22.10;1.00;;;;;;5097287;28;20449;-72
2022/06/22 02:59:28;;;;;;;2.77;2.20;;;22.00;1.00;;;;;;5097789;28;20551;-72
2022/06/22 03:01:56;;;;;;;2.47;2.00;;;21.90;1.00;;;;;;5098444;28;20516;-72
2022/06/22 03:04:24;;;;;;;2.27;2.00;;;22.00;1.00;;;;;;5098952;28;20544;-72
2022/06/22 03:06:54;;;;;;;2.13;2.03;;;22.10;1.00;;;;;;5098911;28;20441;-72
2022/06/22 03:09:21;;;;;;;2.10;1.90;;;22.30;1.00;;;;;;5098876;28;20583;-72
2022/06/22 03:11:52;;;;;;;2.70;2.47;;;22.40;1.00;;;;;;5099400;28;20494;-72
2022/06/22 03:14:24;;;;;;;2.47;2.10;;;22.40;1.00;;;;;;5098820;28;20492;-72
2022/06/22 03:16:54;;;;;;;2.60;1.93;;;22.50;1.00;;;;;;5098950;28;20537;-72
2022/06/22 03:19:27;;;;;;;2.40;2.00;;;22.50;1.00;;;;;;5098857;28;20544;-71
2022/06/22 03:21:54;;;;;;;2.47;1.67;;;22.50;1.00;;;;;;5098985;28;20953;-72
2022/06/22 03:24:33;;;;;;;5.13;2.07;;;22.40;1.00;;;;;;5098977;28;20493;-72
2022/06/22 03:27:03;;;;;;;2.57;2.23;;;22.20;1.00;;;;;;5098546;28;20453;-72
2022/06/22 03:29:35;;;;;;;3.30;2.00;;;22.10;1.00;;;;;;5098204;28;20553;-72
2022/06/22 03:32:06;;;;;;;2.13;1.93;;;22.20;1.00;;;;;;5098978;28;20544;-72
2022/06/22 03:34:39;;;;;;;2.27;2.07;;;22.20;1.00;;;;;;5097970;28;20488;-72
2022/06/22 03:37:13;;;;;;;3.13;2.90;;;22.20;1.00;;;;;;5098321;28;20446;-72
2022/06/22 03:39:50;;;;;;;2.60;2.37;;;22.10;1.00;;;;;;5097788;28;20487;-73
2022/06/22 03:42:21;;;;;;;2.77;2.33;;;22.10;1.00;;;;;;5097869;28;20549;-71
2022/06/22 03:44:54;;;;;;;2.67;1.70;;;22.10;1.00;;;;;;5098267;28;20548;-72
2022/06/22 03:47:25;;;;;;;2.17;1.73;;;22.00;1.00;;;;;;5098120;28;20818;-72
2022/06/22 03:50:01;;;;;;;2.93;2.73;;;21.90;1.00;;;;;;5098651;28;20454;-71
2022/06/22 03:52:33;;;;;;;2.00;1.80;;;21.90;1.00;;;;;;5097155;28;20437;-72
2022/06/22 03:55:05;;;;;;;2.10;1.90;;;21.90;1.00;;;;;;5096427;28;20865;-71
2022/06/22 03:57:36;;;;;;;2.70;2.10;;;21.90;1.00;;;;;;5097947;28;20540;-71
2022/06/22 04:00:05;;;;;;;2.30;2.10;;;22.00;1.00;;;;;;5097582;28;20544;-71
2022/06/22 04:02:32;;;;;;;2.33;2.10;;;22.10;1.00;;;;;;5097270;28;20512;-71
2022/06/22 04:05:02;;;;;;;2.43;2.23;;;22.00;1.00;;;;;;5096949;28;20560;-71
2022/06/22 04:07:40;;;;;;;2.53;1.70;;;22.00;1.00;;;;;;5097736;28;20544;-72
2022/06/22 04:10:20;;;;;;;2.33;1.50;;;22.10;1.00;;;;;;5097655;28;20609;-71
2022/06/22 04:12:49;;;;;;;2.37;2.17;;;22.20;1.00;;;;;;5097764;28;20528;-71
2022/06/22 04:15:27;;;;;;;2.23;2.03;;;22.30;1.00;;;;;;5097857;28;20493;-72
2022/06/22 04:17:57;;;;;;;4.10;1.67;;;22.30;1.00;;;;;;5097110;28;20469;-72
2022/06/22 04:23:18;;;;;;;6.93;2.07;;;22.10;1.00;;;;;;5096208;28;20564;-71
2022/06/22 04:25:46;;;;;;;1.60;1.40;;;22.10;1.00;;;;;;5096913;28;20456;-72
2022/06/22 04:28:16;;;;;;;1.87;1.77;;;22.10;99.90;;;;;;5096867;28;20885;-71
2022/06/22 04:30:47;;;;;;;2.60;1.50;;;22.20;99.90;;;;;;5096931;28;20558;-72
2022/06/22 04:33:19;;;;;;;1.80;1.70;;;22.30;99.90;;;;;;5096518;28;20544;-71
2022/06/22 04:35:53;;;;;;;1.77;1.20;;;22.40;44.10;;;;;;5095657;28;20968;-72
2022/06/22 04:38:26;;;;;;;2.70;1.83;;;22.50;1.00;;;;;;5094996;28;20465;-71
2022/06/22 04:40:59;;;;;;;3.87;1.30;;;22.60;99.90;;;;;;5082482;28;20466;-71
2022/06/22 04:43:26;;;;;;;2.97;1.40;;;22.60;43.60;;;;;;5077650;28;20479;-72
2022/06/22 04:45:53;;;;;;;1.70;1.60;;;22.70;1.00;;;;;;5092366;28;20462;-72
2022/06/22 04:48:23;;;;;;;1.37;1.27;;;22.80;1.00;;;;;;5117622;28;20528;-73
2022/06/22 04:50:57;;;;;;;2.00;1.90;;;22.80;99.90;;;;;;5118162;28;20493;-77
2022/06/22 04:53:29;;;;;;;1.57;1.33;;;22.80;1.00;;;;;;5105788;28;20548;-83
2022/06/22 04:56:00;;;;;;;1.57;1.37;;;22.70;99.90;;;;;;5097016;28;20537;-83
2022/06/22 04:58:36;;;;;;;1.90;1.70;;;22.80;99.90;;;;;;5093038;28;20462;-80
2022/06/22 05:01:04;;;;;;;2.70;2.03;;;22.80;99.90;;;;;;5089118;28;20457;-79
2022/06/22 05:03:33;;;;;;;2.27;1.50;;;22.80;99.90;;;;;;5101728;28;20485;-80
2022/06/22 05:06:12;;;;;;;1.40;1.30;;;22.80;1.00;;;;;;5107693;28;20496;-80
2022/06/22 05:08:44;;;;;;;2.03;1.73;;;22.80;1.00;;;;;;5107929;28;20492;-80
2022/06/22 05:11:18;;;;;;;2.30;1.30;;;22.70;1.00;;;;;;5103575;28;20548;-80
2022/06/22 05:13:48;;;;;;;1.60;1.50;;;22.70;99.90;;;;;;5106689;28;20911;-80
2022/06/22 05:16:22;;;;;;;1.83;1.30;;;22.80;1.00;;;;;;5104007;28;20533;-80
2022/06/22 05:18:50;;;;;;;1.53;1.43;;;22.80;31.30;;;;;;5108837;28;20452;-79
2022/06/22 05:21:31;;;;;;;1.70;1.30;;;23.00;81.30;;;;;;5099302;28;20437;-81
2022/06/22 05:24:02;;;;;;;2.00;1.50;;;23.20;1.00;;;;;;5099676;28;20916;-81
2022/06/22 05:26:30;;;;;;;2.83;2.53;;;23.30;99.90;;;;;;5097598;28;20461;-80
2022/06/22 05:29:05;;;;;;;2.47;1.73;;;23.30;99.90;;;;;;5096974;28;20445;-79
2022/06/22 05:31:36;;;;;;;1.60;1.50;;;23.20;99.90;;;;;;5098441;28;20456;-81
2022/06/22 05:34:08;;;;;;;1.70;1.60;;;23.30;1.00;;;;;;5101076;28;20480;-81
2022/06/22 05:36:42;;;;;;;1.67;1.57;;;23.40;99.90;;;;;;5099960;28;20908;-79
2022/06/22 05:39:13;;;;;;;2.87;1.73;;;23.60;99.90;;;;;;5099188;28;20464;-80
2022/06/22 05:41:45;;;;;;;1.60;1.30;;;23.60;1.00;;;;;;5095777;28;20449;-80
2022/06/22 05:44:16;;;;;;;1.67;1.40;;;23.60;1.00;;;;;;5097043;28;20552;-80
2022/06/22 05:46:48;;;;;;;2.20;2.00;;;23.60;1.00;;;;;;5096932;28;20775;-80
2022/06/22 05:49:17;;;;;;;2.10;1.90;;;23.70;1.00;;;;;;5098894;28;20518;-80
2022/06/22 05:51:54;;;;;;;3.10;2.17;;;23.70;99.90;;;;;;5096297;28;20454;-80
2022/06/22 05:54:26;;;;;;;2.47;2.37;;;23.80;99.90;;;;;;5095009;28;20770;-79
2022/06/22 05:57:01;;;;;;;2.17;1.67;;;23.70;68.80;;;;;;5091914;28;20460;-80
2022/06/22 05:59:35;;;;;;;2.40;2.20;;;23.40;99.90;;;;;;5096157;28;20831;-80
2022/06/22 06:02:10;;;;;;;2.00;1.80;;;23.20;99.90;;;;;;5099039;28;20457;-81
2022/06/22 06:04:44;;;;;;;2.43;1.80;;;23.20;1.00;;;;;;5091459;28;20446;-81
2022/06/22 06:07:19;;;;;;;1.90;1.80;;;23.20;1.00;;;;;;5092763;28;20510;-81
2022/06/22 06:09:47;;;;;;;2.67;2.23;;;23.30;99.90;;;;;;5092075;28;20532;-80
2022/06/22 06:12:18;;;;;;;2.83;2.47;;;23.30;99.90;;;;;;5091844;28;20461;-81
2022/06/22 06:14:47;;;;;;;2.90;2.27;;;23.30;1.00;;;;;;5100929;28;20477;-82
2022/06/22 06:17:18;;;;;;;1.97;1.60;;;23.30;95.90;;;;;;5105219;28;20916;-82
2022/06/22 06:19:51;;;;;;;2.80;1.77;;;23.30;1.00;;;;;;5100399;28;20478;-82
2022/06/22 06:22:20;;;;;;;3.87;1.80;;;23.40;99.90;;;;;;5117465;28;20441;-80
2022/06/22 06:27:40;;;;;;;2.07;1.87;;;23.60;1.00;;;;;;5088920;28;20520;-80
2022/06/22 06:30:13;;;;;;;2.20;1.60;;;23.70;1.00;;;;;;5103443;28;20461;-81
2022/06/22 06:32:46;;;;;;;2.03;1.53;;;23.80;1.00;;;;;;5101144;28;20493;-81
2022/06/22 06:35:18;;;;;;;3.33;1.80;;;23.80;1.00;;;;;;5098028;28;20485;-80
2022/06/22 06:38:06;;;;;;;2.17;1.97;;;23.80;99.90;;;;;;5099233;28;20476;-80
2022/06/22 06:40:40;;;;;;;6.90;1.83;;;23.70;1.00;;;;;;5098690;28;20532;-81
2022/06/22 06:43:21;;;;;;;2.07;1.67;;;23.60;99.90;;;;;;5097652;28;20584;-80
2022/06/22 06:45:50;;;;;;;2.83;2.30;;;23.60;1.00;;;;;;5075539;28;20465;-80
2022/06/22 06:48:22;;;;;;;6.20;2.20;;;23.50;99.90;;;;;;5091993;28;20450;-79
2022/06/22 06:50:52;;;;;;;2.23;1.80;;;23.50;99.90;;;;;;5095986;28;20528;-78
2022/06/22 06:53:28;;;;;;;2.43;2.23;;;23.50;1.00;;;;;;5096131;28;20604;-79
2022/06/22 06:56:00;;;;;;;2.63;1.70;;;23.60;1.00;;;;;;5099188;28;20456;-80
2022/06/22 06:58:36;;;;;;;2.10;1.90;;;23.60;54.60;;;;;;5098301;28;20449;-79
2022/06/22 07:01:05;;;;;;;1.97;1.87;;;23.70;53.90;;;;;;5098195;28;20927;-81
2022/06/22 07:03:40;;;;;;;2.17;1.70;;;23.60;99.90;;;;;;5097764;28;20552;-76
2022/06/22 07:06:07;;;;;;;2.83;2.10;;;23.50;99.90;;;;;;5097376;28;20831;-80
2022/06/22 07:08:38;;;;;;;2.20;2.00;;;23.50;1.00;;;;;;5097815;28;20477;-79
2022/06/22 07:11:11;;;;;;;3.13;2.00;;;23.50;1.00;;;;;;5094199;28;20572;-79
2022/06/22 07:13:46;;;;;;;3.30;1.90;;;23.50;1.00;;;;;;5093483;28;20469;-79
2022/06/22 07:16:20;;;;;;;2.33;2.13;;;23.50;99.90;;;;;;5096079;28;20477;-79
2022/06/22 07:18:51;;;;;;;3.60;1.80;;;23.30;1.00;;;;;;5096047;28;20485;-77
2022/06/22 07:21:23;;;;;;;2.83;2.10;;;23.30;99.90;;;;;;5096235;28;20560;-77
2022/06/22 07:23:56;;;;;;;2.67;2.47;;;23.20;1.00;;;;;;5094987;28;20464;-76
2022/06/22 07:26:35;;;;;;;4.00;1.90;;;23.20;1.00;;;;;;5097500;28;20548;-76
2022/06/22 07:29:07;;;;;;;2.83;2.63;;;23.20;1.00;;;;;;5096321;28;20469;-76
2022/06/22 07:31:43;;;;;;;2.03;1.83;;;23.20;1.00;;;;;;5094394;28;20831;-76
2022/06/22 07:34:16;;;;;;;2.30;2.10;;;22.90;1.00;;;;;;5094190;28;20540;-75
2022/06/22 07:36:49;;;;;;;3.53;2.40;;;22.80;1.00;;;;;;5093991;28;20492;-75
2022/06/22 07:39:23;;;;;;;2.83;2.63;;;22.90;1.00;;;;;;5092925;28;20458;-76
2022/06/22 07:41:50;;;;;;;2.63;2.43;;;23.00;1.00;;;;;;5093012;28;20522;-76
2022/06/22 07:44:19;;;;;;;2.63;2.40;;;23.00;1.00;;;;;;5092825;28;20481;-75
2022/06/22 07:46:50;;;;;;;3.13;2.87;;;22.90;1.00;;;;;;5093254;28;20484;-76
2022/06/22 07:49:24;;;;;;;2.43;1.93;;;23.00;1.00;;;;;;5093943;28;20457;-76
2022/06/22 07:51:53;;;;;;;2.40;1.83;;;23.00;1.00;;;;;;5093557;28;20537;-76
2022/06/22 07:54:27;;;;;;;2.50;2.00;;;23.10;1.00;;;;;;5096259;28;20912;-76
2022/06/22 07:57:02;;;;;;;2.83;1.87;;;23.10;99.90;;;;;;5095437;28;20819;-76
2022/06/22 07:59:36;;;;;;;2.77;2.27;;;23.10;1.00;;;;;;5093645;28;20452;-76
2022/06/22 08:02:17;;;;;;;3.40;2.00;;;23.20;99.90;;;;;;5095652;28;21095;-77
2022/06/22 08:04:50;;;;;;;2.10;2.00;;;23.30;99.90;;;;;;5093760;28;20473;-76
2022/06/22 08:07:19;;;;;;;2.30;2.10;;;23.30;1.00;;;;;;5093800;28;20450;-76
2022/06/22 08:09:59;;;;;;;4.53;3.97;;;23.40;99.90;;;;;;5094014;28;20501;-76
2022/06/22 08:12:33;;;;;;;3.17;2.63;;;23.50;14.50;;;;;;5093013;28;20469;-76
2022/06/22 08:15:09;;;;;;;2.57;2.37;;;23.60;1.00;;;;;;5094714;28;20962;-74
2022/06/22 08:17:42;;;;;;;2.37;2.03;;;23.60;99.90;;;;;;5094201;28;20826;-73
2022/06/22 08:20:14;;;;;;;3.17;2.87;;;23.60;1.00;;;;;;5095037;28;20554;-78
2022/06/22 08:22:44;;;;;;;2.83;2.63;;;23.60;1.00;;;;;;5093206;28;20769;-79
2022/06/22 08:25:14;;;;;;;2.63;2.43;;;23.60;1.00;;;;;;5096088;28;20584;-80
2022/06/22 08:27:42;;;;;;;2.03;1.93;;;23.60;1.00;;;;;;5097057;28;20940;-79
2022/06/22 08:30:10;;;;;;;3.23;3.03;;;23.50;1.00;;;;;;5094991;28;20481;-74
2022/06/22 08:32:43;;;;;;;3.20;2.73;;;23.50;1.00;;;;;;5095432;28;20445;-75
2022/06/22 08:35:18;;;;;;;2.60;2.23;;;23.50;1.00;;;;;;5095568;28;20473;-75
2022/06/22 08:37:54;;;;;;;2.30;2.10;;;23.60;99.90;;;;;;5095892;28;20532;-76
2022/06/22 08:40:33;;;;;;;3.47;3.10;;;23.40;99.90;;;;;;5095949;28;20496;-76
2022/06/22 08:43:06;;;;;;;2.87;2.30;;;23.30;99.90;;;;;;5094948;28;20525;-76
2022/06/22 08:45:46;;;;;;;2.80;2.60;;;23.20;99.90;;;;;;5086558;28;20485;-76
2022/06/22 08:48:35;;;;;;;3.20;2.90;;;23.10;60.40;;;;;;5094333;28;20445;-74
2022/06/22 08:51:17;;;;;;;3.83;2.73;;;23.10;99.90;;;;;;5093520;28;20452;-77
2022/06/22 08:54:10;;;;;;;3.10;2.87;;;23.10;99.90;;;;;;5078641;28;20434;-78
2022/06/22 08:56:51;;;;;;;5.20;3.47;;;23.10;99.90;;;;;;5093980;28;20525;-77
2022/06/22 08:59:41;;;;;;;3.43;2.43;;;23.20;1.00;;;;;;5094873;28;20449;-77
2022/06/22 09:02:43;;;;;;;2.60;2.40;;;23.30;99.90;;;;;;5093165;28;20458;-76
2022/06/22 09:05:48;;;;;;;2.83;2.60;;;23.40;1.00;;;;;;5095590;28;20920;-75
2022/06/22 09:08:36;;;;;;;2.80;2.20;;;23.40;99.90;;;;;;5041885;28;20544;-77
2022/06/22 09:11:18;;;;;;;4.17;2.97;;;23.50;1.00;;;;;;5094506;28;20509;-74
2022/06/22 09:14:32;;;;;;;4.77;3.70;;;23.80;1.00;;;;;;5093628;28;20532;-74
2022/06/22 09:17:19;;;;;;;5.47;2.80;;;23.90;99.90;;;;;;5045464;28;20518;-74
2022/06/22 09:20:02;;;;;;;2.87;2.67;;;24.10;1.00;;;;;;5094612;28;20461;-74
2022/06/22 09:22:41;;;;;;;2.80;1.60;;;24.20;1.00;;;;;;5093639;28;20832;-74
2022/06/22 09:25:26;;;;;;;5.03;2.73;;;24.30;99.90;;;;;;5075400;28;20539;-74
2022/06/22 09:28:01;;;;;;;3.00;2.70;;;24.30;1.00;;;;;;5085588;28;20441;-74
2022/06/22 09:31:05;;;;;;;2.63;1.90;;;24.30;1.00;;;;;;5094173;28;20459;-74
2022/06/22 09:33:54;;;;;;;5.27;2.67;;;24.30;99.90;;;;;;5097711;28;20481;-77
2022/06/22 09:37:08;;;;;;;2.37;2.17;;;24.50;99.90;;;;;;5097474;28;20422;-80
2022/06/22 09:40:00;;;;;;;2.40;2.20;;;24.30;1.00;;;;;;5059492;28;20457;-74
2022/06/22 09:42:56;;;;;;;3.50;2.87;;;24.20;1.00;;;;;;5092916;28;20481;-74
2022/06/22 09:45:45;;;;;;;2.30;2.10;;;23.80;99.90;;;;;;5115417;28;20839;-77
2022/06/22 09:48:44;;;;;;;5.77;3.30;;;23.80;1.00;;;;;;5109901;28;20764;-79
2022/06/22 09:51:21;;;;;;;2.73;2.10;;;24.00;99.90;;;;;;5062298;28;20438;-80
2022/06/22 09:56:19;;;;;;;3.90;3.50;;;24.10;99.90;;;;;;5102220;28;20425;-79
2022/06/22 09:57:12;;;;;;;3.60;2.17;;;24.30;99.90;;;;;;5093443;28;20835;-74
2022/06/22 10:00:04;;;;;;;3.27;2.97;;;24.30;1.00;;;;;;5093266;28;20450;-75
2022/06/22 10:03:07;;;;;;;2.70;2.47;;;24.10;1.00;;;;;;5093199;28;20481;-74
2022/06/22 10:06:05;;;;;;;3.73;2.47;;;23.90;39.00;;;;;;5095741;28;20512;-75
2022/06/22 10:08:58;;;;;;;3.50;2.00;;;23.80;6.20;;;;;;5096923;28;20460;-75
2022/06/22 10:11:38;;;;;;;2.30;2.10;;;23.90;99.90;;;;;;5076730;28;20470;-75
2022/06/22 10:14:35;;;;;;;3.27;2.00;;;24.10;1.00;;;;;;5078355;28;20537;-75
2022/06/22 10:17:23;;;;;;;2.40;2.23;;;24.30;1.00;;;;;;5098431;28;20527;-74
2022/06/22 10:20:19;;;;;;;2.43;2.23;;;24.20;1.00;;;;;;5095847;28;20544;-74
2022/06/22 10:22:59;;;;;;;4.50;3.20;;;24.20;44.20;;;;;;5097745;28;20875;-76
2022/06/22 10:25:51;;;;;;;2.70;2.50;;;24.10;1.00;;;;;;5096603;28;20485;-73
2022/06/22 10:28:48;;;;;;;2.23;1.90;;;24.20;1.00;;;;;;5096850;28;20453;-76
2022/06/22 10:31:24;;;;;;;3.40;3.10;;;24.10;25.80;;;;;;5007319;28;20445;-75
2022/06/22 10:34:14;;;;;;;2.73;2.53;;;24.00;1.00;;;;;;5097143;28;20753;-74
2022/06/22 10:37:00;;;;;;;2.77;2.40;;;23.90;1.00;;;;;;5097663;28;20532;-74
2022/06/22 10:39:53;;;;;;;3.07;2.90;;;23.70;1.00;;;;;;5096706;28;20477;-74
2022/06/22 10:45:41;;;;;;;9.43;5.83;;;23.60;1.00;;;;;;5096173;28;20923;-73
2022/06/22 10:49:02;;;;;;;4.23;3.77;;;23.60;1.00;;;;;;5091346;28;20510;-73
2022/06/22 10:51:54;;;;;;;4.00;3.40;;;23.20;1.00;;;;;;5094521;28;20816;-74
2022/06/22 10:54:42;;;;;;;3.93;3.40;;;22.80;15.20;;;;;;5093729;28;20441;-73
2022/06/22 10:57:35;;;;;;;2.77;2.23;;;22.40;56.60;;;;;;5093025;28;20544;-72
2022/06/22 11:00:18;;;;;;;9.83;2.40;;;22.40;84.40;;;;;;5089824;28;20449;-73
2022/06/22 11:03:33;;;;;;;2.40;2.20;;;22.40;30.40;;;;;;5095872;28;20445;-72
2022/06/22 11:06:33;;;;;;;3.53;2.03;;;22.30;25.70;;;;;;5036998;28;20465;-72
2022/06/22 11:09:25;;;;;;;1.40;1.30;;;22.30;10.10;;;;;;5093081;28;20973;-73
2022/06/22 11:12:15;;;;;;;2.20;1.60;;;22.40;49.70;;;;;;5053261;28;20479;-74
2022/06/22 11:15:25;;;;;;;3.10;1.40;;;22.50;61.20;;;;;;5051951;28;21054;-75
2022/06/22 11:18:18;;;;;;;2.07;1.67;;;22.60;6.90;;;;;;5054089;28;20518;-74
2022/06/22 11:21:01;;;;;;;2.30;2.10;;;22.50;35.70;;;;;;5054699;28;20895;-71
2022/06/22 11:23:55;;;;;;;3.17;1.53;;;22.40;51.00;;;;;;5054293;28;20486;-72
2022/06/22 11:32:42;;;;;;;1.57;1.30;;;22.50;36.90;;;;;;5056646;28;20485;-72
2022/06/22 11:35:36;;;;;;;2.30;1.53;;;22.50;28.70;;;;;;5059025;28;20462;-74
2022/06/22 11:38:28;;;;;;;2.83;2.00;;;22.50;20.10;;;;;;5074395;28;20519;-74
2022/06/22 11:41:08;;;;;;;4.30;3.10;;;22.70;37.20;;;;;;5073081;28;20529;-74
2022/06/22 11:44:22;;;;;;;2.57;2.13;;;22.70;41.60;;;;;;5075347;28;20928;-75
2022/06/22 11:46:55;;;;;;;3.60;2.00;;;22.80;14.40;;;;;;5039984;28;20798;-74
2022/06/22 11:49:42;;;;;;;2.53;2.33;;;23.10;1.00;;;;;;5075513;28;20554;-74
2022/06/22 11:52:45;;;;;;;2.03;1.60;;;23.00;1.00;;;;;;5075227;28;20791;-75
2022/06/22 11:55:23;;;;;;;2.00;1.60;;;23.00;1.00;;;;;;5064430;28;20502;-74
2022/06/22 11:58:23;;;;;;;1.83;1.63;;;23.10;1.30;;;;;;5055943;28;20483;-77
2022/06/22 12:01:10;;;;;;;2.63;2.43;;;23.10;16.40;;;;;;5070671;28;20528;-75
2022/06/22 12:03:59;;;;;;;3.43;3.13;;;23.10;28.40;;;;;;5075298;28;20454;-76
2022/06/22 12:06:49;;;;;;;3.27;2.97;;;22.90;52.50;;;;;;5068629;28;20480;-75
2022/06/22 12:09:30;;;;;;;2.80;2.60;;;22.70;82.10;;;;;;5036342;28;20456;-75
2022/06/22 12:12:33;;;;;;;4.17;3.50;;;22.70;92.90;;;;;;5074147;28;20438;-74
2022/06/22 12:15:16;;;;;;;3.10;2.90;;;22.80;78.50;;;;;;5048588;28;20991;-75
2022/06/22 12:17:55;;;;;;;6.30;4.93;;;23.00;92.90;;;;;;5084751;28;20457;-75
2022/06/22 12:20:39;;;;;;;5.03;2.83;;;23.10;88.80;;;;;;5095414;28;20473;-75
2022/06/22 12:23:19;;;;;;;2.30;1.83;;;23.10;98.70;;;;;;5094445;28;20522;-75
2022/06/22 12:26:01;;;;;;;3.70;2.13;;;23.00;51.90;;;;;;5093476;28;20519;-75
2022/06/22 12:28:44;;;;;;;4.73;1.70;;;22.90;72.60;;;;;;5094132;28;20551;-75
2022/06/22 12:31:22;;;;;;;1.90;1.40;;;22.90;95.80;;;;;;5092936;28;20796;-75
2022/06/22 12:34:03;;;;;;;4.37;1.60;;;23.10;67.70;;;;;;5093847;28;20460;-75
2022/06/22 12:36:34;;;;;;;2.83;1.10;;;23.10;1.00;;;;;;5094620;28;20506;-75
2022/06/22 12:39:07;;;;;;;1.87;1.20;;;23.00;1.00;;;;;;5095239;28;20920;-74
2022/06/22 12:41:48;;;;;;;3.73;1.30;;;23.00;1.00;;;;;;5095825;28;20477;-74
2022/06/22 12:44:52;;;;;;;3.83;1.10;;;22.90;20.90;;;;;;5094592;28;20463;-75
2022/06/22 12:47:40;;;;;;;3.07;1.27;;;23.00;15.00;;;;;;5094415;28;20502;-74
2022/06/22 12:50:44;;;;;;;2.20;1.10;;;23.00;6.90;;;;;;5094554;28;20499;-74
2022/06/22 12:53:17;;;;;;;6.90;1.97;;;23.10;1.00;;;;;;5095640;28;20477;-73
2022/06/22 12:55:55;;;;;;;3.07;1.20;;;22.90;10.90;;;;;;5094228;28;20744;-74
2022/06/22 12:58:30;;;;;;;1.87;1.20;;;22.90;6.40;;;;;;5096850;28;20461;-73
2022/06/22 13:00:59;;;;;;;1.53;1.10;;;23.10;9.70;;;;;;5115549;28;20767;-74
2022/06/22 13:03:33;;;;;;;2.53;1.20;;;23.00;26.30;;;;;;5116305;28;20544;-75
2022/06/22 13:06:04;;;;;;;3.00;1.40;;;23.00;16.50;;;;;;5112421;28;20578;-74
2022/06/22 13:08:34;;;;;;;2.13;1.00;;;23.00;36.30;;;;;;5111805;28;20448;-74
2022/06/22 13:11:07;;;;;;;1.63;1.00;;;22.90;59.90;;;;;;5112485;28;20473;-74
2022/06/22 13:13:42;;;;;;;2.23;1.00;;;22.90;65.60;;;;;;5112913;28;20437;-74
2022/06/22 13:16:19;;;;;;;1.87;0.90;;;22.90;64.80;;;;;;5114530;28;20472;-74
2022/06/22 13:18:56;;;;;;;5.90;1.20;;;23.00;65.00;;;;;;5114363;28;20460;-74
2022/06/22 13:21:36;;;;;;;3.10;1.00;;;22.90;74.00;;;;;;5113721;28;20456;-73
2022/06/22 13:24:14;;;;;;;2.90;1.00;;;22.80;68.70;;;;;;5113261;28;20559;-74
2022/06/22 13:26:50;;;;;;;2.27;1.00;;;22.90;90.80;;;;;;5116188;28;20448;-73
2022/06/22 13:29:28;;;;;;;3.83;1.13;;;22.90;49.00;;;;;;5116861;28;20799;-75
2022/06/22 13:31:59;;;;;;;2.03;1.23;;;22.90;65.70;;;;;;5115996;28;20480;-74
2022/06/22 13:34:31;;;;;;;2.80;1.10;;;22.80;45.30;;;;;;5115539;28;20440;-73
2022/06/22 13:37:09;;;;;;;5.87;1.33;;;22.70;27.00;;;;;;5095601;28;20484;-74
2022/06/22 13:39:50;;;;;;;1.57;1.00;;;22.70;50.10;;;;;;5114268;28;20496;-74
2022/06/22 13:42:55;;;;;;;3.83;1.00;;;22.80;38.70;;;;;;5113272;28;21117;-73
2022/06/22 13:45:48;;;;;;;3.23;1.00;;;23.10;26.20;;;;;;5113129;28;20927;-72
2022/06/22 13:48:22;;;;;;;5.10;1.00;;;23.40;24.90;;;;;;5109086;28;20452;-71
2022/06/22 13:51:19;;;;;;;2.60;1.47;;;23.50;1.00;;;;;;5092140;28;21091;-72
2022/06/22 13:54:26;;;;;;;5.90;1.43;;;23.70;7.40;;;;;;5082317;28;20445;-72
2022/06/22 13:57:02;;;;;;;2.13;1.00;;;23.90;1.00;;;;;;4990056;28;22093;-72
2022/06/22 13:59:36;;;;;;;2.20;1.00;;;24.10;1.00;;;;;;5091599;28;20880;-73
2022/06/22 14:02:15;;;;;;;1.90;1.00;;;24.20;1.00;;;;;;5092520;28;20449;-71
2022/06/22 14:04:49;;;;;;;3.57;1.00;;;24.40;1.00;;;;;;5092041;28;20445;-71
2022/06/22 14:07:24;;;;;;;1.77;1.00;;;24.50;1.00;;;;;;5092834;28;20446;-72
2022/06/22 14:13:36;;;;;;;3.80;0.90;;;25.00;1.00;;;;;;5073266;28;21099;-71